BAW964H EGLL-EDDH
Flight info
| Callsign | BAW964H |
|---|---|
| Flight time | N/A |
| Altitude | 39000 |
| Route | BPK Q295 SOMVA DCT MAVAS DCT GASTU DCT OSTOR/N0352F230 T904 RIBSO RIBSO7A |
| Aircraft | A320/M-SDE3FGHIRWY/LB1 |
Departure
| Time | 2026-05-06 15:54 |
|---|---|
| Airport | London Heathrow Airport (EGLL) |
Arrival
| Time | N/A |
|---|---|
| Airport | Hamburg Helmut Schmidt Airport (EDDH) |
| Time | Latitude | Longitude | Altitude | Speed | Heading |
|---|---|---|---|---|---|
| 2026-05-06 15:31 | 51.46926 | -0.48718 | 89 ft | 0 kts | 360° |
| 2026-05-06 15:45 | 51.46906 | -0.48716 | 88 ft | 4 kts | 345° |
| 2026-05-06 15:46 | 51.46884 | -0.48698 | 87 ft | 4 kts | 306° |
| 2026-05-06 15:46 | 51.46877 | -0.48671 | 87 ft | 1 kts | 270° |
| 2026-05-06 15:46 | 51.46877 | -0.48665 | 87 ft | 0 kts | 270° |
| 2026-05-06 15:51 | 51.46876 | -0.48672 | 87 ft | 4 kts | 270° |
| 2026-05-06 15:51 | 51.46841 | -0.48758 | 88 ft | 13 kts | 175° |
| 2026-05-06 15:51 | 51.46804 | -0.48753 | 88 ft | 0 kts | 178° |
| 2026-05-06 15:52 | 51.46796 | -0.48752 | 88 ft | 4 kts | 178° |
| 2026-05-06 15:52 | 51.46752 | -0.48750 | 87 ft | 9 kts | 178° |
| 2026-05-06 15:52 | 51.46675 | -0.48748 | 87 ft | 13 kts | 180° |
| 2026-05-06 15:53 | 51.46582 | -0.48780 | 88 ft | 15 kts | 197° |
| 2026-05-06 15:53 | 51.46486 | -0.48731 | 88 ft | 16 kts | 118° |
| 2026-05-06 15:53 | 51.46480 | -0.48504 | 88 ft | 33 kts | 89° |
| 2026-05-06 15:53 | 51.46485 | -0.47725 | 90 ft | 105 kts | 89° |
| 2026-05-06 15:54 | 51.46490 | -0.46244 | 92 ft | 158 kts | 88° |
| 2026-05-06 15:54 | 51.46499 | -0.44446 | 674 ft | 162 kts | 85° |
| 2026-05-06 15:54 | 51.46521 | -0.42639 | 1391 ft | 164 kts | 82° |
| 2026-05-06 15:54 | 51.46825 | -0.40815 | 1788 ft | 179 kts | 55° |
| 2026-05-06 15:55 | 51.47656 | -0.39145 | 2131 ft | 203 kts | 47° |
| 2026-05-06 15:55 | 51.48628 | -0.37304 | 2634 ft | 228 kts | 47° |
| 2026-05-06 15:55 | 51.49678 | -0.35307 | 3307 ft | 244 kts | 47° |
| 2026-05-06 15:55 | 51.50789 | -0.33180 | 4230 ft | 252 kts | 48° |
| 2026-05-06 15:56 | 51.51916 | -0.30971 | 5196 ft | 258 kts | 53° |
| 2026-05-06 15:56 | 51.52681 | -0.28322 | 6137 ft | 266 kts | 70° |
| 2026-05-06 15:56 | 51.53281 | -0.25480 | 7053 ft | 271 kts | 69° |
| 2026-05-06 15:56 | 51.54117 | -0.22752 | 7904 ft | 274 kts | 50° |
| 2026-05-06 15:57 | 51.55480 | -0.20622 | 8766 ft | 276 kts | 31° |
| 2026-05-06 15:57 | 51.57204 | -0.19338 | 9623 ft | 278 kts | 19° |
| 2026-05-06 15:57 | 51.59033 | -0.18181 | 10359 ft | 290 kts | 17° |
| 2026-05-06 15:57 | 51.61034 | -0.17175 | 10682 ft | 311 kts | 14° |
| 2026-05-06 15:58 | 51.63149 | -0.16162 | 11285 ft | 320 kts | 14° |
| 2026-05-06 15:58 | 51.65308 | -0.15140 | 12034 ft | 325 kts | 14° |
| 2026-05-06 15:58 | 51.67494 | -0.14123 | 12788 ft | 329 kts | 13° |
| 2026-05-06 15:58 | 51.69717 | -0.13090 | 13534 ft | 334 kts | 15° |
| 2026-05-06 15:59 | 51.71823 | -0.11520 | 14226 ft | 342 kts | 30° |
| 2026-05-06 15:59 | 51.73646 | -0.09004 | 14879 ft | 350 kts | 47° |
| 2026-05-06 15:59 | 51.74995 | -0.05680 | 15521 ft | 358 kts | 63° |
| 2026-05-06 15:59 | 51.75723 | -0.01802 | 16152 ft | 365 kts | 80° |
| 2026-05-06 16:00 | 51.76059 | 0.02280 | 16762 ft | 369 kts | 82° |
| 2026-05-06 16:00 | 51.76396 | 0.06429 | 17394 ft | 374 kts | 82° |
| 2026-05-06 16:00 | 51.76734 | 0.10564 | 18069 ft | 377 kts | 82° |
| 2026-05-06 16:00 | 51.77083 | 0.14794 | 18684 ft | 381 kts | 82° |
| 2026-05-06 16:01 | 51.77437 | 0.19066 | 19269 ft | 385 kts | 82° |
| 2026-05-06 16:01 | 51.77790 | 0.23386 | 19907 ft | 388 kts | 82° |
| 2026-05-06 16:01 | 51.78139 | 0.27676 | 20484 ft | 392 kts | 82° |
| 2026-05-06 16:01 | 51.78493 | 0.32055 | 21080 ft | 395 kts | 82° |
| 2026-05-06 16:02 | 51.78849 | 0.36474 | 21656 ft | 398 kts | 82° |
| 2026-05-06 16:02 | 51.79208 | 0.40954 | 22217 ft | 402 kts | 82° |
| 2026-05-06 16:02 | 51.79568 | 0.45462 | 22819 ft | 405 kts | 82° |
| 2026-05-06 16:02 | 51.79900 | 0.49647 | 23356 ft | 409 kts | 83° |
| 2026-05-06 16:03 | 51.80259 | 0.54210 | 23884 ft | 411 kts | 83° |
| 2026-05-06 16:03 | 51.80620 | 0.58818 | 24376 ft | 414 kts | 83° |
| 2026-05-06 16:03 | 51.81020 | 0.63357 | 24823 ft | 417 kts | 78° |
| 2026-05-06 16:03 | 51.81834 | 0.67945 | 25276 ft | 420 kts | 68° |
| 2026-05-06 16:04 | 51.82970 | 0.72336 | 25732 ft | 423 kts | 66° |
| 2026-05-06 16:04 | 51.84104 | 0.76674 | 26194 ft | 425 kts | 66° |
| 2026-05-06 16:04 | 51.85254 | 0.81104 | 26634 ft | 428 kts | 66° |
| 2026-05-06 16:04 | 51.86406 | 0.85569 | 27087 ft | 430 kts | 66° |
| 2026-05-06 16:05 | 51.87562 | 0.90060 | 27510 ft | 433 kts | 67° |
| 2026-05-06 16:05 | 51.88727 | 0.94601 | 27934 ft | 436 kts | 67° |
| 2026-05-06 16:05 | 51.89891 | 0.99143 | 28375 ft | 438 kts | 67° |
| 2026-05-06 16:05 | 51.91048 | 1.03663 | 28815 ft | 439 kts | 67° |
| 2026-05-06 16:06 | 51.92219 | 1.08241 | 29246 ft | 442 kts | 67° |
| 2026-05-06 16:06 | 51.93404 | 1.12860 | 29646 ft | 444 kts | 67° |
| 2026-05-06 16:06 | 51.94593 | 1.17502 | 30053 ft | 447 kts | 67° |
| 2026-05-06 16:06 | 51.95789 | 1.22185 | 30406 ft | 449 kts | 67° |
| 2026-05-06 16:07 | 51.96965 | 1.26825 | 30759 ft | 452 kts | 67° |
| 2026-05-06 16:07 | 51.98169 | 1.31607 | 31120 ft | 454 kts | 67° |
| 2026-05-06 16:07 | 51.99347 | 1.36301 | 31457 ft | 456 kts | 67° |
| 2026-05-06 16:07 | 52.00552 | 1.41105 | 31801 ft | 458 kts | 67° |
| 2026-05-06 16:08 | 52.01755 | 1.45892 | 32286 ft | 457 kts | 67° |
| 2026-05-06 16:08 | 52.02957 | 1.50675 | 32763 ft | 455 kts | 67° |
| 2026-05-06 16:08 | 52.04134 | 1.55371 | 33235 ft | 455 kts | 67° |
| 2026-05-06 16:08 | 52.05324 | 1.60140 | 33689 ft | 454 kts | 67° |
| 2026-05-06 16:09 | 52.06509 | 1.64901 | 34142 ft | 453 kts | 67° |
| 2026-05-06 16:09 | 52.07688 | 1.69653 | 34510 ft | 453 kts | 68° |
| 2026-05-06 16:09 | 52.08866 | 1.74408 | 34859 ft | 453 kts | 68° |
| 2026-05-06 16:09 | 52.10033 | 1.79120 | 35181 ft | 454 kts | 68° |
| 2026-05-06 16:10 | 52.11058 | 1.83259 | 35461 ft | 454 kts | 68° |
| 2026-05-06 16:10 | 52.12240 | 1.88036 | 35779 ft | 455 kts | 68° |
| 2026-05-06 16:10 | 52.13419 | 1.92815 | 36095 ft | 455 kts | 68° |
| 2026-05-06 16:10 | 52.14601 | 1.97621 | 36395 ft | 456 kts | 68° |
| 2026-05-06 16:11 | 52.15778 | 2.02421 | 36701 ft | 456 kts | 68° |
| 2026-05-06 16:11 | 52.16956 | 2.07235 | 36975 ft | 457 kts | 68° |
| 2026-05-06 16:11 | 52.18134 | 2.12059 | 37267 ft | 457 kts | 68° |
| 2026-05-06 16:11 | 52.19296 | 2.16835 | 37547 ft | 458 kts | 68° |
| 2026-05-06 16:12 | 52.20471 | 2.21676 | 37836 ft | 458 kts | 68° |
| 2026-05-06 16:12 | 52.21646 | 2.26530 | 38105 ft | 459 kts | 68° |
| 2026-05-06 16:12 | 52.22817 | 2.31380 | 38379 ft | 459 kts | 69° |
| 2026-05-06 16:12 | 52.23984 | 2.36236 | 38641 ft | 460 kts | 69° |
| 2026-05-06 16:13 | 52.25135 | 2.41037 | 38837 ft | 460 kts | 69° |
| 2026-05-06 16:13 | 52.26307 | 2.45929 | 38944 ft | 462 kts | 69° |
| 2026-05-06 16:13 | 52.28657 | 2.55735 | 38964 ft | 463 kts | 69° |
| 2026-05-06 16:14 | 52.30930 | 2.65541 | 38961 ft | 463 kts | 74° |
| 2026-05-06 16:14 | 52.32729 | 2.75694 | 38961 ft | 463 kts | 74° |
| 2026-05-06 16:15 | 52.34502 | 2.85768 | 38956 ft | 463 kts | 74° |
| 2026-05-06 16:15 | 52.36279 | 2.95945 | 38964 ft | 464 kts | 75° |
| 2026-05-06 16:16 | 52.38038 | 3.06060 | 38946 ft | 464 kts | 75° |
| 2026-05-06 16:16 | 52.39844 | 3.16233 | 38949 ft | 464 kts | 70° |
| 2026-05-06 16:17 | 52.42485 | 3.25905 | 38945 ft | 464 kts | 65° |
| 2026-05-06 16:17 | 52.45182 | 3.35457 | 38952 ft | 465 kts | 65° |
| 2026-05-06 16:18 | 52.47886 | 3.45120 | 38958 ft | 465 kts | 65° |
| 2026-05-06 16:18 | 52.50582 | 3.54792 | 38942 ft | 466 kts | 66° |
| 2026-05-06 16:19 | 52.53261 | 3.64428 | 38937 ft | 466 kts | 66° |
| 2026-05-06 16:19 | 52.55961 | 3.74149 | 38938 ft | 467 kts | 66° |
| 2026-05-06 16:20 | 52.58623 | 3.83819 | 38939 ft | 467 kts | 66° |
| 2026-05-06 16:20 | 52.61301 | 3.93577 | 38948 ft | 467 kts | 66° |
| 2026-05-06 16:21 | 52.63972 | 4.03314 | 38940 ft | 467 kts | 66° |
| 2026-05-06 16:21 | 52.66631 | 4.13087 | 38951 ft | 467 kts | 66° |
| 2026-05-06 16:22 | 52.69280 | 4.22867 | 38964 ft | 467 kts | 66° |
| 2026-05-06 16:22 | 52.71926 | 4.32667 | 38958 ft | 467 kts | 66° |
| 2026-05-06 16:23 | 52.74557 | 4.42436 | 38953 ft | 467 kts | 66° |
| 2026-05-06 16:23 | 52.77191 | 4.52267 | 38953 ft | 468 kts | 66° |
| 2026-05-06 16:24 | 52.79814 | 4.62108 | 38959 ft | 468 kts | 66° |
| 2026-05-06 16:24 | 52.81995 | 4.70310 | 38961 ft | 468 kts | 67° |
| 2026-05-06 16:25 | 52.84811 | 4.80963 | 38963 ft | 468 kts | 67° |
| 2026-05-06 16:25 | 52.87407 | 4.90849 | 38963 ft | 468 kts | 67° |
| 2026-05-06 16:26 | 52.89991 | 5.00695 | 38963 ft | 468 kts | 67° |
| 2026-05-06 16:26 | 52.92149 | 5.08948 | 38909 ft | 467 kts | 67° |
| 2026-05-06 16:27 | 52.94736 | 5.18874 | 38947 ft | 468 kts | 67° |
| 2026-05-06 16:27 | 52.97291 | 5.28733 | 38950 ft | 467 kts | 67° |
| 2026-05-06 16:28 | 52.99846 | 5.38670 | 38952 ft | 467 kts | 67° |
| 2026-05-06 16:28 | 53.02391 | 5.48609 | 38954 ft | 467 kts | 67° |
| 2026-05-06 16:29 | 53.04925 | 5.58505 | 38956 ft | 467 kts | 67° |
| 2026-05-06 16:29 | 53.07462 | 5.68462 | 38957 ft | 467 kts | 68° |
| 2026-05-06 16:30 | 53.09555 | 5.76734 | 38951 ft | 467 kts | 68° |
| 2026-05-06 16:30 | 53.12483 | 5.88349 | 38969 ft | 467 kts | 68° |
| 2026-05-06 16:31 | 53.14992 | 5.98356 | 38961 ft | 468 kts | 68° |
| 2026-05-06 16:31 | 53.17494 | 6.08366 | 38960 ft | 468 kts | 68° |
| 2026-05-06 16:32 | 53.19988 | 6.18403 | 38946 ft | 468 kts | 68° |
| 2026-05-06 16:32 | 53.22459 | 6.28396 | 38949 ft | 468 kts | 68° |
| 2026-05-06 16:33 | 53.24943 | 6.38480 | 38943 ft | 469 kts | 68° |
| 2026-05-06 16:34 | 53.28646 | 6.53545 | 38949 ft | 468 kts | 68° |
| 2026-05-06 16:34 | 53.31104 | 6.63652 | 38677 ft | 467 kts | 68° |
| 2026-05-06 16:34 | 53.32328 | 6.68697 | 38414 ft | 467 kts | 68° |
| 2026-05-06 16:35 | 53.33555 | 6.73751 | 37856 ft | 467 kts | 68° |
| 2026-05-06 16:35 | 53.34772 | 6.78786 | 37253 ft | 467 kts | 69° |
| 2026-05-06 16:35 | 53.35978 | 6.83775 | 36624 ft | 468 kts | 69° |
| 2026-05-06 16:35 | 53.37203 | 6.88859 | 35970 ft | 469 kts | 69° |
| 2026-05-06 16:36 | 53.38413 | 6.93899 | 35545 ft | 464 kts | 69° |
| 2026-05-06 16:36 | 53.39613 | 6.98916 | 35051 ft | 462 kts | 69° |
| 2026-05-06 16:36 | 53.40799 | 7.03907 | 34553 ft | 460 kts | 69° |
| 2026-05-06 16:36 | 53.41981 | 7.08884 | 34040 ft | 458 kts | 69° |
| 2026-05-06 16:37 | 53.43144 | 7.13787 | 33469 ft | 457 kts | 69° |
| 2026-05-06 16:37 | 53.44315 | 7.18730 | 32980 ft | 453 kts | 69° |
| 2026-05-06 16:37 | 53.45476 | 7.23639 | 32461 ft | 449 kts | 69° |
| 2026-05-06 16:37 | 53.46625 | 7.28501 | 31958 ft | 446 kts | 69° |
| 2026-05-06 16:38 | 53.47761 | 7.33322 | 31469 ft | 443 kts | 69° |
| 2026-05-06 16:38 | 53.48876 | 7.38065 | 30988 ft | 440 kts | 69° |
| 2026-05-06 16:38 | 53.49996 | 7.42841 | 30510 ft | 437 kts | 69° |
| 2026-05-06 16:38 | 53.51106 | 7.47573 | 30048 ft | 434 kts | 69° |
| 2026-05-06 16:39 | 53.52211 | 7.52293 | 29520 ft | 433 kts | 70° |
| 2026-05-06 16:39 | 53.53310 | 7.56992 | 29094 ft | 426 kts | 70° |
| 2026-05-06 16:39 | 53.54373 | 7.61549 | 28663 ft | 421 kts | 70° |
| 2026-05-06 16:39 | 53.55435 | 7.66108 | 28238 ft | 416 kts | 70° |
| 2026-05-06 16:40 | 53.56484 | 7.70628 | 27816 ft | 411 kts | 70° |
| 2026-05-06 16:40 | 53.57517 | 7.75100 | 27395 ft | 408 kts | 70° |
| 2026-05-06 16:40 | 53.58529 | 7.79495 | 26963 ft | 405 kts | 69° |
| 2026-05-06 16:40 | 53.59543 | 7.83910 | 26550 ft | 403 kts | 69° |
| 2026-05-06 16:41 | 53.60549 | 7.88307 | 26117 ft | 402 kts | 69° |
| 2026-05-06 16:41 | 53.61551 | 7.92700 | 25685 ft | 400 kts | 69° |
| 2026-05-06 16:41 | 53.62549 | 7.97085 | 25227 ft | 400 kts | 69° |
| 2026-05-06 16:41 | 53.63539 | 8.01467 | 24778 ft | 399 kts | 70° |
| 2026-05-06 16:42 | 53.64446 | 8.05813 | 24338 ft | 398 kts | 71° |
| 2026-05-06 16:42 | 53.65304 | 8.10250 | 23897 ft | 397 kts | 72° |
| 2026-05-06 16:42 | 53.66126 | 8.14682 | 23428 ft | 396 kts | 72° |
| 2026-05-06 16:42 | 53.66940 | 8.19119 | 22931 ft | 394 kts | 72° |
| 2026-05-06 16:43 | 53.67748 | 8.23516 | 22499 ft | 390 kts | 72° |
| 2026-05-06 16:43 | 53.68555 | 8.27865 | 22042 ft | 387 kts | 72° |
| 2026-05-06 16:43 | 53.69366 | 8.32173 | 21588 ft | 383 kts | 72° |
| 2026-05-06 16:43 | 53.70108 | 8.36090 | 21189 ft | 380 kts | 73° |
| 2026-05-06 16:44 | 53.70904 | 8.40319 | 20756 ft | 376 kts | 73° |
| 2026-05-06 16:44 | 53.71694 | 8.44502 | 20315 ft | 373 kts | 73° |
| 2026-05-06 16:44 | 53.72483 | 8.48683 | 19878 ft | 370 kts | 73° |
| 2026-05-06 16:44 | 53.73263 | 8.52811 | 19445 ft | 368 kts | 74° |
| 2026-05-06 16:45 | 53.74037 | 8.56921 | 19018 ft | 366 kts | 74° |
| 2026-05-06 16:45 | 53.74800 | 8.61009 | 18610 ft | 363 kts | 73° |
| 2026-05-06 16:45 | 53.75545 | 8.65026 | 18194 ft | 361 kts | 74° |
| 2026-05-06 16:45 | 53.76292 | 8.69050 | 17738 ft | 358 kts | 73° |
| 2026-05-06 16:46 | 53.77034 | 8.73054 | 17336 ft | 354 kts | 73° |
| 2026-05-06 16:46 | 53.77765 | 8.77011 | 16877 ft | 351 kts | 73° |
| 2026-05-06 16:46 | 53.78492 | 8.80944 | 16470 ft | 347 kts | 73° |
| 2026-05-06 16:46 | 53.79208 | 8.84825 | 16060 ft | 343 kts | 72° |
| 2026-05-06 16:47 | 53.79915 | 8.88661 | 15667 ft | 340 kts | 72° |
| 2026-05-06 16:47 | 53.80615 | 8.92482 | 15258 ft | 337 kts | 74° |
| 2026-05-06 16:47 | 53.81105 | 8.95108 | 14989 ft | 335 kts | 73° |
| 2026-05-06 16:47 | 53.81797 | 8.98860 | 14583 ft | 332 kts | 73° |
| 2026-05-06 16:48 | 53.82470 | 9.02591 | 14181 ft | 329 kts | 76° |
| 2026-05-06 16:48 | 53.82809 | 9.06379 | 13797 ft | 325 kts | 90° |
| 2026-05-06 16:48 | 53.82667 | 9.10171 | 13371 ft | 317 kts | 96° |
| 2026-05-06 16:48 | 53.82452 | 9.13744 | 13006 ft | 303 kts | 96° |
| 2026-05-06 16:49 | 53.82248 | 9.17278 | 12637 ft | 301 kts | 96° |
| 2026-05-06 16:49 | 53.82045 | 9.20803 | 12258 ft | 299 kts | 95° |
| 2026-05-06 16:49 | 53.81842 | 9.24322 | 11890 ft | 298 kts | 95° |
| 2026-05-06 16:49 | 53.81644 | 9.27764 | 11529 ft | 297 kts | 95° |
| 2026-05-06 16:50 | 53.81428 | 9.31240 | 11166 ft | 296 kts | 98° |